Terminal Aerodrome Forecast
Issued by NWS

Home | Current Version | Previous Version | Text Only | Print | Product List | Glossary On
Versions: 1 2 3 4 5 6 7 8 9 10 11 12 13 14 15 16 17 18 19 20
000
FTUS41 KOKX 231300 AAA
TAFHPN
TAF AMD
KHPN 231309Z 2313/2412 06007KT P6SM SCT030 BKN090
      TEMPO 2313/2316 BKN015 OVC030
     FM232000 11006KT P6SM SCT040 BKN100
     FM240100 VRB03KT P6SM SCT040
      AMD NOT SKED=

USA.gov is the U.S. government's official web portal to all federal, state and local government web resources and services.